sensor_id;sensor_type;location;lat;lon;timestamp;P1;durP1;ratioP1;P2;durP2;ratioP2
51800;SDS011;37855;53.204;6.568;2023-06-24T00:01:51;8.70;;;5.77;;
51800;SDS011;37855;53.204;6.568;2023-06-24T00:04:17;8.10;;;5.65;;
51800;SDS011;37855;53.204;6.568;2023-06-24T00:06:45;9.73;;;6.07;;
51800;SDS011;37855;53.204;6.568;2023-06-24T00:09:11;11.13;;;5.90;;
51800;SDS011;37855;53.204;6.568;2023-06-24T00:11:39;10.77;;;5.70;;
51800;SDS011;37855;53.204;6.568;2023-06-24T00:14:05;8.85;;;6.22;;
51800;SDS011;37855;53.204;6.568;2023-06-24T00:16:32;10.75;;;6.35;;
51800;SDS011;37855;53.204;6.568;2023-06-24T00:18:57;11.37;;;6.57;;
51800;SDS011;37855;53.204;6.568;2023-06-24T00:21:25;14.23;;;7.18;;
51800;SDS011;37855;53.204;6.568;2023-06-24T00:23:57;10.60;;;5.75;;
51800;SDS011;37855;53.204;6.568;2023-06-24T00:26:24;9.97;;;6.03;;
51800;SDS011;37855;53.204;6.568;2023-06-24T00:28:50;9.98;;;6.22;;
51800;SDS011;37855;53.204;6.568;2023-06-24T00:31:17;10.82;;;6.35;;
51800;SDS011;37855;53.204;6.568;2023-06-24T00:33:44;9.60;;;5.50;;
51800;SDS011;37855;53.204;6.568;2023-06-24T00:36:10;11.10;;;5.83;;
51800;SDS011;37855;53.204;6.568;2023-06-24T00:38:38;10.50;;;5.90;;
51800;SDS011;37855;53.204;6.568;2023-06-24T00:41:04;10.05;;;6.05;;
51800;SDS011;37855;53.204;6.568;2023-06-24T00:43:31;9.20;;;5.93;;
51800;SDS011;37855;53.204;6.568;2023-06-24T00:45:57;11.93;;;6.43;;
51800;SDS011;37855;53.204;6.568;2023-06-24T00:48:23;9.32;;;6.53;;
51800;SDS011;37855;53.204;6.568;2023-06-24T00:50:49;10.50;;;6.20;;
51800;SDS011;37855;53.204;6.568;2023-06-24T00:53:16;10.45;;;6.57;;
51800;SDS011;37855;53.204;6.568;2023-06-24T00:55:43;12.32;;;7.70;;
51800;SDS011;37855;53.204;6.568;2023-06-24T00:58:10;10.50;;;5.90;;
51800;SDS011;37855;53.204;6.568;2023-06-24T01:00:44;11.80;;;6.18;;
51800;SDS011;37855;53.204;6.568;2023-06-24T01:03:11;10.07;;;6.32;;
51800;SDS011;37855;53.204;6.568;2023-06-24T01:05:43;8.98;;;5.80;;
51800;SDS011;37855;53.204;6.568;2023-06-24T01:08:10;9.85;;;6.20;;
51800;SDS011;37855;53.204;6.568;2023-06-24T01:10:40;9.73;;;6.23;;
51800;SDS011;37855;53.204;6.568;2023-06-24T01:13:06;12.60;;;6.40;;
51800;SDS011;37855;53.204;6.568;2023-06-24T01:15:35;11.05;;;6.10;;
51800;SDS011;37855;53.204;6.568;2023-06-24T01:21:06;9.02;;;6.10;;
51800;SDS011;37855;53.204;6.568;2023-06-24T01:34:57;10.60;;;6.30;;
51800;SDS011;37855;53.204;6.568;2023-06-24T01:37:32;9.47;;;6.60;;
51800;SDS011;37855;53.204;6.568;2023-06-24T01:40:37;10.70;;;6.65;;
51800;SDS011;37855;53.204;6.568;2023-06-24T01:43:06;9.60;;;6.60;;
51800;SDS011;37855;53.204;6.568;2023-06-24T01:45:41;10.57;;;7.30;;
51800;SDS011;37855;53.204;6.568;2023-06-24T01:50:51;11.20;;;7.27;;
51800;SDS011;37855;53.204;6.568;2023-06-24T01:53:23;10.68;;;7.55;;
51800;SDS011;37855;53.204;6.568;2023-06-24T01:55:52;11.10;;;7.63;;
51800;SDS011;37855;53.204;6.568;2023-06-24T01:58:19;11.65;;;7.55;;
51800;SDS011;37855;53.204;6.568;2023-06-24T02:00:50;11.63;;;7.25;;
51800;SDS011;37855;53.204;6.568;2023-06-24T02:03:17;11.70;;;7.57;;
51800;SDS011;37855;53.204;6.568;2023-06-24T02:05:44;12.73;;;7.50;;
51800;SDS011;37855;53.204;6.568;2023-06-24T02:08:12;13.02;;;8.00;;
51800;SDS011;37855;53.204;6.568;2023-06-24T02:10:40;12.52;;;7.72;;
51800;SDS011;37855;53.204;6.568;2023-06-24T02:13:10;13.30;;;8.35;;
51800;SDS011;37855;53.204;6.568;2023-06-24T02:15:37;14.77;;;9.03;;
51800;SDS011;37855;53.204;6.568;2023-06-24T02:18:04;12.43;;;8.00;;
51800;SDS011;37855;53.204;6.568;2023-06-24T02:20:31;14.30;;;8.88;;
51800;SDS011;37855;53.204;6.568;2023-06-24T02:22:58;11.65;;;7.57;;
51800;SDS011;37855;53.204;6.568;2023-06-24T02:25:29;12.40;;;7.80;;
51800;SDS011;37855;53.204;6.568;2023-06-24T02:27:54;13.73;;;8.37;;
51800;SDS011;37855;53.204;6.568;2023-06-24T02:30:24;12.20;;;8.02;;
51800;SDS011;37855;53.204;6.568;2023-06-24T02:32:50;13.80;;;8.30;;
51800;SDS011;37855;53.204;6.568;2023-06-24T02:35:16;13.32;;;7.88;;
51800;SDS011;37855;53.204;6.568;2023-06-24T02:37:42;13.90;;;8.33;;
51800;SDS011;37855;53.204;6.568;2023-06-24T02:40:08;11.65;;;7.72;;
51800;SDS011;37855;53.204;6.568;2023-06-24T02:42:35;11.95;;;7.43;;
51800;SDS011;37855;53.204;6.568;2023-06-24T02:45:04;14.80;;;8.32;;
51800;SDS011;37855;53.204;6.568;2023-06-24T02:47:31;12.80;;;8.13;;
51800;SDS011;37855;53.204;6.568;2023-06-24T02:49:58;13.20;;;8.48;;
51800;SDS011;37855;53.204;6.568;2023-06-24T02:52:29;12.85;;;8.18;;
51800;SDS011;37855;53.204;6.568;2023-06-24T02:54:56;13.05;;;8.63;;
51800;SDS011;37855;53.204;6.568;2023-06-24T02:57:25;13.68;;;8.45;;
51800;SDS011;37855;53.204;6.568;2023-06-24T02:59:54;12.23;;;8.17;;
51800;SDS011;37855;53.204;6.568;2023-06-24T03:02:20;12.40;;;8.50;;
51800;SDS011;37855;53.204;6.568;2023-06-24T03:04:47;13.30;;;8.85;;
51800;SDS011;37855;53.204;6.568;2023-06-24T03:07:16;15.03;;;9.07;;
51800;SDS011;37855;53.204;6.568;2023-06-24T03:09:48;14.68;;;9.20;;
51800;SDS011;37855;53.204;6.568;2023-06-24T03:12:16;15.20;;;9.30;;
51800;SDS011;37855;53.204;6.568;2023-06-24T03:14:42;16.02;;;8.85;;
51800;SDS011;37855;53.204;6.568;2023-06-24T03:17:07;13.70;;;8.60;;
51800;SDS011;37855;53.204;6.568;2023-06-24T03:19:34;12.73;;;8.10;;
51800;SDS011;37855;53.204;6.568;2023-06-24T03:21:59;14.02;;;8.32;;
51800;SDS011;37855;53.204;6.568;2023-06-24T03:24:25;12.40;;;8.03;;
51800;SDS011;37855;53.204;6.568;2023-06-24T03:26:50;13.65;;;7.88;;
51800;SDS011;37855;53.204;6.568;2023-06-24T03:29:21;11.77;;;7.87;;
51800;SDS011;37855;53.204;6.568;2023-06-24T03:31:50;12.00;;;7.70;;
51800;SDS011;37855;53.204;6.568;2023-06-24T03:34:18;13.32;;;8.25;;
51800;SDS011;37855;53.204;6.568;2023-06-24T03:36:44;12.63;;;7.60;;
51800;SDS011;37855;53.204;6.568;2023-06-24T03:39:10;12.33;;;7.30;;
51800;SDS011;37855;53.204;6.568;2023-06-24T03:41:36;12.35;;;7.60;;
51800;SDS011;37855;53.204;6.568;2023-06-24T03:44:01;11.13;;;7.30;;
51800;SDS011;37855;53.204;6.568;2023-06-24T03:46:27;13.75;;;7.97;;
51800;SDS011;37855;53.204;6.568;2023-06-24T03:48:58;10.20;;;6.83;;
51800;SDS011;37855;53.204;6.568;2023-06-24T03:51:25;11.07;;;6.85;;
51800;SDS011;37855;53.204;6.568;2023-06-24T03:53:51;10.73;;;7.63;;
51800;SDS011;37855;53.204;6.568;2023-06-24T03:56:16;10.33;;;7.63;;
51800;SDS011;37855;53.204;6.568;2023-06-24T03:58:42;10.07;;;6.70;;
51800;SDS011;37855;53.204;6.568;2023-06-24T04:01:08;11.27;;;6.63;;
51800;SDS011;37855;53.204;6.568;2023-06-24T04:03:34;10.80;;;7.07;;
51800;SDS011;37855;53.204;6.568;2023-06-24T04:06:00;11.10;;;6.90;;
51800;SDS011;37855;53.204;6.568;2023-06-24T04:08:28;12.63;;;8.15;;
51800;SDS011;37855;53.204;6.568;2023-06-24T04:10:55;11.73;;;6.90;;
51800;SDS011;37855;53.204;6.568;2023-06-24T04:13:21;11.68;;;7.18;;
51800;SDS011;37855;53.204;6.568;2023-06-24T04:15:47;10.45;;;6.40;;
51800;SDS011;37855;53.204;6.568;2023-06-24T04:18:12;11.93;;;6.33;;
51800;SDS011;37855;53.204;6.568;2023-06-24T04:20:39;11.15;;;7.05;;
51800;SDS011;37855;53.204;6.568;2023-06-24T04:23:05;11.50;;;7.57;;
51800;SDS011;37855;53.204;6.568;2023-06-24T04:25:31;11.50;;;7.28;;
51800;SDS011;37855;53.204;6.568;2023-06-24T04:27:56;10.70;;;7.25;;
51800;SDS011;37855;53.204;6.568;2023-06-24T04:30:23;13.10;;;7.07;;
51800;SDS011;37855;53.204;6.568;2023-06-24T04:32:48;12.20;;;7.35;;
51800;SDS011;37855;53.204;6.568;2023-06-24T04:35:14;9.70;;;6.30;;
51800;SDS011;37855;53.204;6.568;2023-06-24T04:37:40;11.87;;;6.77;;
51800;SDS011;37855;53.204;6.568;2023-06-24T04:40:06;9.90;;;6.78;;
51800;SDS011;37855;53.204;6.568;2023-06-24T04:42:32;9.47;;;6.27;;
51800;SDS011;37855;53.204;6.568;2023-06-24T04:45:01;10.30;;;6.43;;
51800;SDS011;37855;53.204;6.568;2023-06-24T04:47:30;10.82;;;6.95;;
51800;SDS011;37855;53.204;6.568;2023-06-24T04:49:56;9.65;;;5.70;;
51800;SDS011;37855;53.204;6.568;2023-06-24T04:52:23;10.13;;;6.33;;
51800;SDS011;37855;53.204;6.568;2023-06-24T04:54:48;9.75;;;5.97;;
51800;SDS011;37855;53.204;6.568;2023-06-24T04:57:31;11.45;;;6.15;;
51800;SDS011;37855;53.204;6.568;2023-06-24T04:59:59;10.85;;;6.18;;
51800;SDS011;37855;53.204;6.568;2023-06-24T05:02:25;9.57;;;5.40;;
51800;SDS011;37855;53.204;6.568;2023-06-24T05:04:51;9.88;;;5.53;;
51800;SDS011;37855;53.204;6.568;2023-06-24T05:07:17;11.38;;;6.93;;
51800;SDS011;37855;53.204;6.568;2023-06-24T05:09:45;11.32;;;6.50;;
51800;SDS011;37855;53.204;6.568;2023-06-24T05:12:14;11.30;;;6.23;;
51800;SDS011;37855;53.204;6.568;2023-06-24T05:14:40;11.68;;;5.90;;
51800;SDS011;37855;53.204;6.568;2023-06-24T05:17:06;13.50;;;7.50;;
51800;SDS011;37855;53.204;6.568;2023-06-24T05:19:31;12.50;;;6.40;;
51800;SDS011;37855;53.204;6.568;2023-06-24T05:21:57;8.98;;;6.35;;
51800;SDS011;37855;53.204;6.568;2023-06-24T05:24:23;12.20;;;7.30;;
51800;SDS011;37855;53.204;6.568;2023-06-24T05:26:49;9.93;;;6.03;;
51800;SDS011;37855;53.204;6.568;2023-06-24T05:29:16;9.88;;;6.05;;
51800;SDS011;37855;53.204;6.568;2023-06-24T05:31:42;9.80;;;5.78;;
51800;SDS011;37855;53.204;6.568;2023-06-24T05:34:08;10.80;;;6.07;;
51800;SDS011;37855;53.204;6.568;2023-06-24T05:36:34;9.13;;;6.00;;
51800;SDS011;37855;53.204;6.568;2023-06-24T05:39:00;13.18;;;6.18;;
51800;SDS011;37855;53.204;6.568;2023-06-24T05:41:26;9.90;;;5.63;;
51800;SDS011;37855;53.204;6.568;2023-06-24T05:44:01;9.30;;;5.18;;
51800;SDS011;37855;53.204;6.568;2023-06-24T05:46:28;10.07;;;7.00;;
51800;SDS011;37855;53.204;6.568;2023-06-24T05:48:55;9.30;;;5.25;;
51800;SDS011;37855;53.204;6.568;2023-06-24T05:51:22;10.03;;;5.77;;
51800;SDS011;37855;53.204;6.568;2023-06-24T05:53:47;7.93;;;5.18;;
51800;SDS011;37855;53.204;6.568;2023-06-24T05:56:14;9.57;;;6.25;;
51800;SDS011;37855;53.204;6.568;2023-06-24T05:58:40;9.77;;;6.23;;
51800;SDS011;37855;53.204;6.568;2023-06-24T06:01:09;9.50;;;6.20;;
51800;SDS011;37855;53.204;6.568;2023-06-24T06:03:35;9.20;;;5.93;;
51800;SDS011;37855;53.204;6.568;2023-06-24T06:06:01;9.80;;;5.60;;
51800;SDS011;37855;53.204;6.568;2023-06-24T06:08:27;10.95;;;6.63;;
51800;SDS011;37855;53.204;6.568;2023-06-24T06:10:53;10.85;;;6.93;;
51800;SDS011;37855;53.204;6.568;2023-06-24T06:13:18;11.47;;;6.60;;
51800;SDS011;37855;53.204;6.568;2023-06-24T06:15:44;9.67;;;5.83;;
51800;SDS011;37855;53.204;6.568;2023-06-24T06:18:10;10.63;;;5.93;;
51800;SDS011;37855;53.204;6.568;2023-06-24T06:20:35;9.27;;;5.93;;
51800;SDS011;37855;53.204;6.568;2023-06-24T06:23:01;9.00;;;5.80;;
51800;SDS011;37855;53.204;6.568;2023-06-24T06:25:27;9.97;;;6.23;;
51800;SDS011;37855;53.204;6.568;2023-06-24T06:27:52;10.27;;;6.28;;
51800;SDS011;37855;53.204;6.568;2023-06-24T06:30:18;9.20;;;5.80;;
51800;SDS011;37855;53.204;6.568;2023-06-24T06:32:47;9.20;;;5.97;;
51800;SDS011;37855;53.204;6.568;2023-06-24T06:35:16;12.27;;;7.28;;
51800;SDS011;37855;53.204;6.568;2023-06-24T06:37:43;10.63;;;6.88;;
51800;SDS011;37855;53.204;6.568;2023-06-24T06:40:11;10.07;;;6.40;;
51800;SDS011;37855;53.204;6.568;2023-06-24T06:42:37;8.88;;;6.00;;
51800;SDS011;37855;53.204;6.568;2023-06-24T06:45:03;10.90;;;6.75;;
51800;SDS011;37855;53.204;6.568;2023-06-24T06:47:32;13.10;;;7.67;;
51800;SDS011;37855;53.204;6.568;2023-06-24T06:49:57;11.43;;;7.43;;
51800;SDS011;37855;53.204;6.568;2023-06-24T06:52:23;10.60;;;5.93;;
51800;SDS011;37855;53.204;6.568;2023-06-24T06:54:49;10.30;;;5.93;;
51800;SDS011;37855;53.204;6.568;2023-06-24T06:57:14;10.53;;;6.10;;
51800;SDS011;37855;53.204;6.568;2023-06-24T06:59:40;10.07;;;6.43;;
51800;SDS011;37855;53.204;6.568;2023-06-24T07:02:06;9.50;;;6.03;;
51800;SDS011;37855;53.204;6.568;2023-06-24T07:04:32;12.77;;;8.35;;
51800;SDS011;37855;53.204;6.568;2023-06-24T07:06:57;14.27;;;8.57;;
51800;SDS011;37855;53.204;6.568;2023-06-24T07:09:23;15.03;;;6.13;;
51800;SDS011;37855;53.204;6.568;2023-06-24T07:11:49;9.68;;;5.90;;
51800;SDS011;37855;53.204;6.568;2023-06-24T07:14:15;12.67;;;7.97;;
51800;SDS011;37855;53.204;6.568;2023-06-24T07:16:41;10.73;;;6.80;;
51800;SDS011;37855;53.204;6.568;2023-06-24T07:19:06;13.67;;;8.47;;
51800;SDS011;37855;53.204;6.568;2023-06-24T07:21:32;12.25;;;7.07;;
51800;SDS011;37855;53.204;6.568;2023-06-24T07:23:57;11.73;;;6.20;;
51800;SDS011;37855;53.204;6.568;2023-06-24T07:26:23;11.23;;;6.65;;
51800;SDS011;37855;53.204;6.568;2023-06-24T07:28:49;10.13;;;6.27;;
51800;SDS011;37855;53.204;6.568;2023-06-24T07:31:14;13.13;;;8.05;;
51800;SDS011;37855;53.204;6.568;2023-06-24T07:33:41;11.27;;;7.10;;
51800;SDS011;37855;53.204;6.568;2023-06-24T07:36:07;12.32;;;7.22;;
51800;SDS011;37855;53.204;6.568;2023-06-24T07:38:33;10.98;;;6.18;;
51800;SDS011;37855;53.204;6.568;2023-06-24T07:40:59;15.03;;;7.47;;
51800;SDS011;37855;53.204;6.568;2023-06-24T07:43:25;11.82;;;7.68;;
51800;SDS011;37855;53.204;6.568;2023-06-24T07:45:50;9.63;;;6.37;;
51800;SDS011;37855;53.204;6.568;2023-06-24T07:48:16;11.38;;;6.15;;
51800;SDS011;37855;53.204;6.568;2023-06-24T07:50:41;10.73;;;6.40;;
51800;SDS011;37855;53.204;6.568;2023-06-24T07:53:07;12.13;;;6.90;;
51800;SDS011;37855;53.204;6.568;2023-06-24T07:55:33;11.67;;;6.40;;
51800;SDS011;37855;53.204;6.568;2023-06-24T07:57:58;11.20;;;6.28;;
51800;SDS011;37855;53.204;6.568;2023-06-24T08:00:24;9.00;;;5.40;;
51800;SDS011;37855;53.204;6.568;2023-06-24T08:02:50;13.20;;;6.22;;
51800;SDS011;37855;53.204;6.568;2023-06-24T08:05:16;9.50;;;6.57;;
51800;SDS011;37855;53.204;6.568;2023-06-24T08:07:43;10.15;;;5.88;;
51800;SDS011;37855;53.204;6.568;2023-06-24T08:10:09;13.15;;;5.35;;
51800;SDS011;37855;53.204;6.568;2023-06-24T08:12:35;9.77;;;5.40;;
51800;SDS011;37855;53.204;6.568;2023-06-24T08:15:01;12.70;;;5.63;;
51800;SDS011;37855;53.204;6.568;2023-06-24T08:17:27;11.82;;;5.18;;
51800;SDS011;37855;53.204;6.568;2023-06-24T08:19:52;10.33;;;5.80;;
51800;SDS011;37855;53.204;6.568;2023-06-24T08:22:18;11.23;;;5.25;;
51800;SDS011;37855;53.204;6.568;2023-06-24T08:24:44;8.63;;;5.23;;
51800;SDS011;37855;53.204;6.568;2023-06-24T08:27:10;8.90;;;5.60;;
51800;SDS011;37855;53.204;6.568;2023-06-24T08:29:35;12.00;;;5.20;;
51800;SDS011;37855;53.204;6.568;2023-06-24T08:32:03;16.77;;;5.60;;
51800;SDS011;37855;53.204;6.568;2023-06-24T08:34:29;9.55;;;4.88;;
51800;SDS011;37855;53.204;6.568;2023-06-24T08:36:55;9.48;;;4.60;;
51800;SDS011;37855;53.204;6.568;2023-06-24T08:39:21;11.60;;;5.30;;
51800;SDS011;37855;53.204;6.568;2023-06-24T08:41:47;10.27;;;5.60;;
51800;SDS011;37855;53.204;6.568;2023-06-24T08:44:12;10.63;;;4.67;;
51800;SDS011;37855;53.204;6.568;2023-06-24T08:46:38;8.93;;;5.22;;
51800;SDS011;37855;53.204;6.568;2023-06-24T08:52:14;11.37;;;5.07;;
51800;SDS011;37855;53.204;6.568;2023-06-24T08:54:42;8.50;;;4.57;;
51800;SDS011;37855;53.204;6.568;2023-06-24T08:57:12;10.77;;;5.07;;
51800;SDS011;37855;53.204;6.568;2023-06-24T08:59:40;10.68;;;5.53;;
51800;SDS011;37855;53.204;6.568;2023-06-24T09:02:07;10.55;;;4.90;;
51800;SDS011;37855;53.204;6.568;2023-06-24T09:04:32;8.33;;;4.37;;
51800;SDS011;37855;53.204;6.568;2023-06-24T09:07:02;9.10;;;5.55;;
51800;SDS011;37855;53.204;6.568;2023-06-24T09:09:28;8.77;;;5.10;;
51800;SDS011;37855;53.204;6.568;2023-06-24T09:11:55;11.23;;;5.00;;
51800;SDS011;37855;53.204;6.568;2023-06-24T09:14:25;12.63;;;5.03;;
51800;SDS011;37855;53.204;6.568;2023-06-24T09:16:53;9.90;;;5.13;;
51800;SDS011;37855;53.204;6.568;2023-06-24T09:19:23;8.07;;;4.93;;
51800;SDS011;37855;53.204;6.568;2023-06-24T09:21:50;10.30;;;5.05;;
51800;SDS011;37855;53.204;6.568;2023-06-24T09:24:18;20.80;;;5.57;;
51800;SDS011;37855;53.204;6.568;2023-06-24T09:26:44;11.93;;;6.03;;
51800;SDS011;37855;53.204;6.568;2023-06-24T09:29:13;9.82;;;5.07;;
51800;SDS011;37855;53.204;6.568;2023-06-24T09:31:49;8.63;;;4.80;;
51800;SDS011;37855;53.204;6.568;2023-06-24T09:34:18;9.68;;;4.80;;
51800;SDS011;37855;53.204;6.568;2023-06-24T09:36:45;9.68;;;5.00;;
51800;SDS011;37855;53.204;6.568;2023-06-24T09:39:17;9.55;;;5.20;;
51800;SDS011;37855;53.204;6.568;2023-06-24T09:41:42;8.83;;;5.30;;
51800;SDS011;37855;53.204;6.568;2023-06-24T09:44:10;10.60;;;5.57;;
51800;SDS011;37855;53.204;6.568;2023-06-24T09:46:37;9.73;;;5.47;;
51800;SDS011;37855;53.204;6.568;2023-06-24T09:49:05;9.17;;;5.20;;
51800;SDS011;37855;53.204;6.568;2023-06-24T09:51:37;9.50;;;4.75;;
51800;SDS011;37855;53.204;6.568;2023-06-24T09:54:07;11.05;;;4.70;;
51800;SDS011;37855;53.204;6.568;2023-06-24T09:56:37;9.63;;;4.70;;
51800;SDS011;37855;53.204;6.568;2023-06-24T09:59:08;9.98;;;5.18;;
51800;SDS011;37855;53.204;6.568;2023-06-24T10:01:38;9.20;;;5.00;;
51800;SDS011;37855;53.204;6.568;2023-06-24T10:04:08;9.77;;;5.25;;
51800;SDS011;37855;53.204;6.568;2023-06-24T10:06:34;10.95;;;5.03;;
51800;SDS011;37855;53.204;6.568;2023-06-24T10:09:00;11.50;;;5.47;;
51800;SDS011;37855;53.204;6.568;2023-06-24T10:11:26;9.27;;;4.67;;
51800;SDS011;37855;53.204;6.568;2023-06-24T10:13:52;8.45;;;4.90;;
51800;SDS011;37855;53.204;6.568;2023-06-24T10:16:20;10.77;;;4.85;;
51800;SDS011;37855;53.204;6.568;2023-06-24T10:18:47;9.43;;;4.77;;
51800;SDS011;37855;53.204;6.568;2023-06-24T10:21:16;9.40;;;5.00;;
51800;SDS011;37855;53.204;6.568;2023-06-24T10:26:35;9.90;;;4.60;;
51800;SDS011;37855;53.204;6.568;2023-06-24T10:31:55;8.60;;;4.70;;
51800;SDS011;37855;53.204;6.568;2023-06-24T10:37:00;9.65;;;4.45;;
51800;SDS011;37855;53.204;6.568;2023-06-24T10:45:19;7.83;;;3.70;;
51800;SDS011;37855;53.204;6.568;2023-06-24T10:47:46;8.98;;;3.70;;
51800;SDS011;37855;53.204;6.568;2023-06-24T10:50:21;12.65;;;4.38;;
51800;SDS011;37855;53.204;6.568;2023-06-24T10:52:51;7.13;;;4.20;;
51800;SDS011;37855;53.204;6.568;2023-06-24T10:55:24;11.00;;;4.05;;
51800;SDS011;37855;53.204;6.568;2023-06-24T10:57:53;7.83;;;3.57;;
51800;SDS011;37855;53.204;6.568;2023-06-24T11:00:20;8.43;;;4.18;;
51800;SDS011;37855;53.204;6.568;2023-06-24T11:02:49;8.52;;;4.20;;
51800;SDS011;37855;53.204;6.568;2023-06-24T11:05:14;8.48;;;3.80;;
51800;SDS011;37855;53.204;6.568;2023-06-24T11:07:40;7.87;;;3.97;;
51800;SDS011;37855;53.204;6.568;2023-06-24T11:10:07;8.05;;;4.40;;
51800;SDS011;37855;53.204;6.568;2023-06-24T11:12:33;9.82;;;5.13;;
51800;SDS011;37855;53.204;6.568;2023-06-24T11:15:02;10.30;;;4.50;;
51800;SDS011;37855;53.204;6.568;2023-06-24T11:17:30;8.65;;;4.57;;
51800;SDS011;37855;53.204;6.568;2023-06-24T11:19:57;7.93;;;4.30;;
51800;SDS011;37855;53.204;6.568;2023-06-24T11:22:24;8.18;;;4.40;;
51800;SDS011;37855;53.204;6.568;2023-06-24T11:24:50;9.73;;;4.28;;
51800;SDS011;37855;53.204;6.568;2023-06-24T11:27:23;8.33;;;4.53;;
51800;SDS011;37855;53.204;6.568;2023-06-24T11:29:53;8.05;;;4.22;;
51800;SDS011;37855;53.204;6.568;2023-06-24T11:32:20;9.32;;;3.92;;
51800;SDS011;37855;53.204;6.568;2023-06-24T11:34:46;8.18;;;4.30;;
51800;SDS011;37855;53.204;6.568;2023-06-24T11:37:14;13.18;;;4.70;;
51800;SDS011;37855;53.204;6.568;2023-06-24T11:39:40;7.97;;;4.23;;
51800;SDS011;37855;53.204;6.568;2023-06-24T11:42:07;6.82;;;4.03;;
51800;SDS011;37855;53.204;6.568;2023-06-24T11:44:40;8.93;;;4.38;;
51800;SDS011;37855;53.204;6.568;2023-06-24T11:47:10;9.35;;;4.30;;
51800;SDS011;37855;53.204;6.568;2023-06-24T11:49:52;10.10;;;4.20;;
51800;SDS011;37855;53.204;6.568;2023-06-24T11:55:03;8.25;;;4.53;;
51800;SDS011;37855;53.204;6.568;2023-06-24T12:00:30;7.07;;;3.80;;
51800;SDS011;37855;53.204;6.568;2023-06-24T12:03:01;8.33;;;4.27;;
51800;SDS011;37855;53.204;6.568;2023-06-24T12:05:31;8.25;;;3.85;;
51800;SDS011;37855;53.204;6.568;2023-06-24T12:08:00;8.40;;;4.13;;
51800;SDS011;37855;53.204;6.568;2023-06-24T12:10:33;7.82;;;4.10;;
51800;SDS011;37855;53.204;6.568;2023-06-24T12:13:03;9.48;;;3.92;;
51800;SDS011;37855;53.204;6.568;2023-06-24T12:15:33;6.53;;;3.80;;
51800;SDS011;37855;53.204;6.568;2023-06-24T12:18:00;8.20;;;4.30;;
51800;SDS011;37855;53.204;6.568;2023-06-24T12:20:27;7.75;;;4.10;;
51800;SDS011;37855;53.204;6.568;2023-06-24T12:22:53;7.15;;;3.95;;
51800;SDS011;37855;53.204;6.568;2023-06-24T12:25:20;8.85;;;4.03;;
51800;SDS011;37855;53.204;6.568;2023-06-24T12:27:46;6.87;;;4.03;;
51800;SDS011;37855;53.204;6.568;2023-06-24T12:30:12;7.88;;;3.85;;
51800;SDS011;37855;53.204;6.568;2023-06-24T12:32:38;8.00;;;4.55;;
51800;SDS011;37855;53.204;6.568;2023-06-24T12:35:05;9.20;;;4.00;;
51800;SDS011;37855;53.204;6.568;2023-06-24T12:37:33;8.40;;;4.07;;
51800;SDS011;37855;53.204;6.568;2023-06-24T12:40:00;7.03;;;3.90;;
51800;SDS011;37855;53.204;6.568;2023-06-24T12:42:27;9.48;;;3.92;;
51800;SDS011;37855;53.204;6.568;2023-06-24T12:44:52;10.70;;;4.03;;
51800;SDS011;37855;53.204;6.568;2023-06-24T12:47:19;7.97;;;3.72;;
51800;SDS011;37855;53.204;6.568;2023-06-24T12:49:48;14.80;;;4.03;;
51800;SDS011;37855;53.204;6.568;2023-06-24T12:52:15;8.80;;;4.07;;
51800;SDS011;37855;53.204;6.568;2023-06-24T12:54:42;9.52;;;3.80;;
51800;SDS011;37855;53.204;6.568;2023-06-24T12:57:08;9.43;;;4.00;;
51800;SDS011;37855;53.204;6.568;2023-06-24T12:59:33;9.50;;;4.03;;
51800;SDS011;37855;53.204;6.568;2023-06-24T13:01:59;10.30;;;4.25;;
51800;SDS011;37855;53.204;6.568;2023-06-24T13:04:26;10.63;;;3.90;;
51800;SDS011;37855;53.204;6.568;2023-06-24T13:06:52;7.97;;;3.58;;
51800;SDS011;37855;53.204;6.568;2023-06-24T13:09:18;8.93;;;4.00;;
51800;SDS011;37855;53.204;6.568;2023-06-24T13:11:44;7.97;;;4.10;;
51800;SDS011;37855;53.204;6.568;2023-06-24T13:14:10;7.60;;;4.50;;
51800;SDS011;37855;53.204;6.568;2023-06-24T13:16:37;6.95;;;3.83;;
51800;SDS011;37855;53.204;6.568;2023-06-24T13:19:03;8.10;;;4.00;;
51800;SDS011;37855;53.204;6.568;2023-06-24T13:21:29;8.20;;;4.00;;
51800;SDS011;37855;53.204;6.568;2023-06-24T13:23:54;11.65;;;4.07;;
51800;SDS011;37855;53.204;6.568;2023-06-24T13:26:20;7.23;;;3.50;;
51800;SDS011;37855;53.204;6.568;2023-06-24T13:28:46;8.55;;;3.67;;
51800;SDS011;37855;53.204;6.568;2023-06-24T13:31:11;7.97;;;3.93;;
51800;SDS011;37855;53.204;6.568;2023-06-24T13:33:37;9.50;;;4.07;;
51800;SDS011;37855;53.204;6.568;2023-06-24T13:36:04;8.00;;;3.67;;
51800;SDS011;37855;53.204;6.568;2023-06-24T13:38:32;10.90;;;4.10;;
51800;SDS011;37855;53.204;6.568;2023-06-24T13:40:57;8.27;;;3.77;;
51800;SDS011;37855;53.204;6.568;2023-06-24T13:43:23;6.77;;;3.50;;
51800;SDS011;37855;53.204;6.568;2023-06-24T13:45:52;6.60;;;3.50;;
51800;SDS011;37855;53.204;6.568;2023-06-24T13:48:17;7.00;;;3.45;;
51800;SDS011;37855;53.204;6.568;2023-06-24T13:50:44;6.28;;;3.40;;
51800;SDS011;37855;53.204;6.568;2023-06-24T13:53:09;7.93;;;3.47;;
51800;SDS011;37855;53.204;6.568;2023-06-24T13:55:35;7.55;;;3.92;;
51800;SDS011;37855;53.204;6.568;2023-06-24T13:58:01;9.30;;;3.67;;
51800;SDS011;37855;53.204;6.568;2023-06-24T14:00:27;7.27;;;3.80;;
51800;SDS011;37855;53.204;6.568;2023-06-24T14:02:56;6.65;;;3.08;;
51800;SDS011;37855;53.204;6.568;2023-06-24T14:05:22;6.10;;;3.10;;
51800;SDS011;37855;53.204;6.568;2023-06-24T14:07:47;7.77;;;3.27;;
51800;SDS011;37855;53.204;6.568;2023-06-24T14:10:13;5.72;;;2.88;;
51800;SDS011;37855;53.204;6.568;2023-06-24T14:12:42;8.70;;;2.97;;
51800;SDS011;37855;53.204;6.568;2023-06-24T14:15:09;6.80;;;2.90;;
51800;SDS011;37855;53.204;6.568;2023-06-24T14:17:38;6.05;;;2.70;;
51800;SDS011;37855;53.204;6.568;2023-06-24T14:20:03;6.17;;;3.30;;
51800;SDS011;37855;53.204;6.568;2023-06-24T14:22:31;6.05;;;2.85;;
51800;SDS011;37855;53.204;6.568;2023-06-24T14:24:59;5.88;;;2.90;;
51800;SDS011;37855;53.204;6.568;2023-06-24T14:27:28;5.87;;;3.27;;
51800;SDS011;37855;53.204;6.568;2023-06-24T14:29:54;7.27;;;3.23;;
51800;SDS011;37855;53.204;6.568;2023-06-24T14:32:21;8.15;;;3.10;;
51800;SDS011;37855;53.204;6.568;2023-06-24T14:34:50;6.90;;;3.17;;
51800;SDS011;37855;53.204;6.568;2023-06-24T14:37:15;5.60;;;2.87;;
51800;SDS011;37855;53.204;6.568;2023-06-24T14:39:44;5.47;;;3.00;;
51800;SDS011;37855;53.204;6.568;2023-06-24T14:42:10;7.10;;;3.20;;
51800;SDS011;37855;53.204;6.568;2023-06-24T14:44:35;6.32;;;3.03;;
51800;SDS011;37855;53.204;6.568;2023-06-24T14:47:01;10.37;;;4.73;;
51800;SDS011;37855;53.204;6.568;2023-06-24T14:49:27;11.27;;;4.80;;
51800;SDS011;37855;53.204;6.568;2023-06-24T14:51:53;7.82;;;4.00;;
51800;SDS011;37855;53.204;6.568;2023-06-24T14:54:19;9.00;;;3.77;;
51800;SDS011;37855;53.204;6.568;2023-06-24T14:56:47;8.07;;;3.75;;
51800;SDS011;37855;53.204;6.568;2023-06-24T14:59:14;8.32;;;3.45;;
51800;SDS011;37855;53.204;6.568;2023-06-24T15:01:40;9.70;;;4.20;;
51800;SDS011;37855;53.204;6.568;2023-06-24T15:04:06;11.07;;;4.20;;
51800;SDS011;37855;53.204;6.568;2023-06-24T15:06:31;10.60;;;4.60;;
51800;SDS011;37855;53.204;6.568;2023-06-24T15:08:57;10.82;;;4.95;;
51800;SDS011;37855;53.204;6.568;2023-06-24T15:11:23;8.43;;;4.60;;
51800;SDS011;37855;53.204;6.568;2023-06-24T15:13:48;8.25;;;3.90;;
51800;SDS011;37855;53.204;6.568;2023-06-24T15:16:14;9.02;;;4.47;;
51800;SDS011;37855;53.204;6.568;2023-06-24T15:18:44;9.00;;;4.60;;
51800;SDS011;37855;53.204;6.568;2023-06-24T15:21:11;8.00;;;4.30;;